sensor_id;sensor_type;location;lat;lon;timestamp;pressure;altitude;pressure_sealevel;temperature;humidity
16194;BME280;8204;53.582;10.080;2023-07-13T00:01:28;99762.31;;;19.27;100.00
16194;BME280;8204;53.582;10.080;2023-07-13T00:03:56;99752.16;;;19.24;100.00
16194;BME280;8204;53.582;10.080;2023-07-13T00:06:21;99758.75;;;19.21;100.00
16194;BME280;8204;53.582;10.080;2023-07-13T00:08:47;99765.34;;;19.19;100.00
16194;BME280;8204;53.582;10.080;2023-07-13T00:11:14;99769.28;;;19.16;100.00
16194;BME280;8204;53.582;10.080;2023-07-13T00:13:40;99773.22;;;19.14;100.00
16194;BME280;8204;53.582;10.080;2023-07-13T00:16:09;99783.53;;;19.10;100.00
16194;BME280;8204;53.582;10.080;2023-07-13T00:18:35;99777.84;;;19.07;100.00
16194;BME280;8204;53.582;10.080;2023-07-13T00:21:01;99774.59;;;19.05;100.00
16194;BME280;8204;53.582;10.080;2023-07-13T00:23:32;99768.16;;;19.01;100.00
16194;BME280;8204;53.582;10.080;2023-07-13T00:26:00;99768.63;;;18.98;100.00
16194;BME280;8204;53.582;10.080;2023-07-13T00:28:26;99773.59;;;18.95;100.00
16194;BME280;8204;53.582;10.080;2023-07-13T00:30:51;99792.09;;;18.90;100.00
16194;BME280;8204;53.582;10.080;2023-07-13T00:33:17;99797.31;;;18.85;100.00
16194;BME280;8204;53.582;10.080;2023-07-13T00:35:42;99793.28;;;18.82;100.00
16194;BME280;8204;53.582;10.080;2023-07-13T00:38:09;99792.09;;;18.78;100.00
16194;BME280;8204;53.582;10.080;2023-07-13T00:40:35;99798.13;;;18.74;100.00
16194;BME280;8204;53.582;10.080;2023-07-13T00:43:00;99797.78;;;18.70;100.00
16194;BME280;8204;53.582;10.080;2023-07-13T00:47:51;99828.72;;;18.65;100.00
16194;BME280;8204;53.582;10.080;2023-07-13T00:50:17;99820.66;;;18.60;100.00
16194;BME280;8204;53.582;10.080;2023-07-13T00:52:46;99809.09;;;18.54;100.00
16194;BME280;8204;53.582;10.080;2023-07-13T00:55:14;99809.59;;;18.51;100.00
16194;BME280;8204;53.582;10.080;2023-07-13T00:57:40;99808.41;;;18.47;100.00
16194;BME280;8204;53.582;10.080;2023-07-13T01:00:06;99806.81;;;18.46;100.00
16194;BME280;8204;53.582;10.080;2023-07-13T01:02:38;99807.28;;;18.43;100.00
16194;BME280;8204;53.582;10.080;2023-07-13T01:05:15;99817.53;;;18.40;100.00
16194;BME280;8204;53.582;10.080;2023-07-13T01:07:41;99824.13;;;18.37;100.00
16194;BME280;8204;53.582;10.080;2023-07-13T01:10:10;99834.38;;;18.34;100.00
16194;BME280;8204;53.582;10.080;2023-07-13T01:12:36;99833.00;;;18.32;100.00
16194;BME280;8204;53.582;10.080;2023-07-13T01:15:03;99826.53;;;18.28;100.00
16194;BME280;8204;53.582;10.080;2023-07-13T01:17:30;99809.22;;;18.25;100.00
16194;BME280;8204;53.582;10.080;2023-07-13T01:19:56;99807.06;;;18.22;100.00
16194;BME280;8204;53.582;10.080;2023-07-13T01:22:22;99794.44;;;18.18;100.00
16194;BME280;8204;53.582;10.080;2023-07-13T01:24:52;99769.19;;;18.15;100.00
16194;BME280;8204;53.582;10.080;2023-07-13T01:27:23;99780.00;;;18.14;100.00
16194;BME280;8204;53.582;10.080;2023-07-13T01:29:51;99792.72;;;18.12;100.00
16194;BME280;8204;53.582;10.080;2023-07-13T01:32:23;99795.22;;;18.07;100.00
16194;BME280;8204;53.582;10.080;2023-07-13T01:34:51;99776.09;;;18.05;100.00
16194;BME280;8204;53.582;10.080;2023-07-13T01:37:20;99757.75;;;18.03;100.00
16194;BME280;8204;53.582;10.080;2023-07-13T01:39:46;99754.31;;;18.03;100.00
16194;BME280;8204;53.582;10.080;2023-07-13T01:42:12;99759.03;;;18.01;100.00
16194;BME280;8204;53.582;10.080;2023-07-13T01:44:37;99763.53;;;18.00;100.00
16194;BME280;8204;53.582;10.080;2023-07-13T01:47:03;99769.28;;;17.97;100.00
16194;BME280;8204;53.582;10.080;2023-07-13T01:49:29;99767.66;;;17.96;100.00
16194;BME280;8204;53.582;10.080;2023-07-13T01:51:55;99763.63;;;17.94;100.00
16194;BME280;8204;53.582;10.080;2023-07-13T01:54:20;99750.59;;;17.92;100.00
16194;BME280;8204;53.582;10.080;2023-07-13T01:56:45;99735.75;;;17.91;100.00
16194;BME280;8204;53.582;10.080;2023-07-13T01:59:12;99729.88;;;17.89;100.00
16194;BME280;8204;53.582;10.080;2023-07-13T02:01:38;99754.53;;;17.90;100.00
16194;BME280;8204;53.582;10.080;2023-07-13T02:04:03;99739.31;;;17.85;100.00
16194;BME280;8204;53.582;10.080;2023-07-13T02:06:29;99715.69;;;17.84;100.00
16194;BME280;8204;53.582;10.080;2023-07-13T02:08:54;99714.88;;;17.83;100.00
16194;BME280;8204;53.582;10.080;2023-07-13T02:11:20;99718.59;;;17.82;100.00
16194;BME280;8204;53.582;10.080;2023-07-13T02:13:46;99712.94;;;17.79;100.00
16194;BME280;8204;53.582;10.080;2023-07-13T02:16:11;99713.97;;;17.78;100.00
16194;BME280;8204;53.582;10.080;2023-07-13T02:18:37;99719.50;;;17.76;100.00
16194;BME280;8204;53.582;10.080;2023-07-13T02:21:04;99710.13;;;17.74;100.00
16194;BME280;8204;53.582;10.080;2023-07-13T02:23:29;99704.03;;;17.73;100.00
16194;BME280;8204;53.582;10.080;2023-07-13T02:25:56;99710.59;;;17.71;100.00
16194;BME280;8204;53.582;10.080;2023-07-13T02:28:22;99703.69;;;17.70;100.00
16194;BME280;8204;53.582;10.080;2023-07-13T02:30:48;99703.09;;;17.68;100.00
16194;BME280;8204;53.582;10.080;2023-07-13T02:33:13;99677.09;;;17.65;100.00
16194;BME280;8204;53.582;10.080;2023-07-13T02:35:38;99686.06;;;17.64;100.00
16194;BME280;8204;53.582;10.080;2023-07-13T02:38:04;99694.81;;;17.64;100.00
16194;BME280;8204;53.582;10.080;2023-07-13T02:40:30;99693.41;;;17.62;100.00
16194;BME280;8204;53.582;10.080;2023-07-13T02:42:59;99687.34;;;17.61;100.00
16194;BME280;8204;53.582;10.080;2023-07-13T02:45:25;99693.91;;;17.59;100.00
16194;BME280;8204;53.582;10.080;2023-07-13T02:47:51;99688.00;;;17.57;100.00
16194;BME280;8204;53.582;10.080;2023-07-13T02:50:17;99675.78;;;17.56;100.00
16194;BME280;8204;53.582;10.080;2023-07-13T02:52:43;99680.50;;;17.54;100.00
16194;BME280;8204;53.582;10.080;2023-07-13T02:55:08;99682.59;;;17.52;100.00
16194;BME280;8204;53.582;10.080;2023-07-13T02:57:34;99682.59;;;17.52;100.00
16194;BME280;8204;53.582;10.080;2023-07-13T03:00:00;99685.44;;;17.51;100.00
16194;BME280;8204;53.582;10.080;2023-07-13T03:02:26;99696.28;;;17.49;100.00
16194;BME280;8204;53.582;10.080;2023-07-13T03:04:54;99691.00;;;17.49;100.00
16194;BME280;8204;53.582;10.080;2023-07-13T03:07:20;99690.19;;;17.49;100.00
16194;BME280;8204;53.582;10.080;2023-07-13T03:09:46;99703.66;;;17.47;100.00
16194;BME280;8204;53.582;10.080;2023-07-13T03:12:12;99710.00;;;17.46;100.00
16194;BME280;8204;53.582;10.080;2023-07-13T03:14:37;99705.97;;;17.44;100.00
16194;BME280;8204;53.582;10.080;2023-07-13T03:17:03;99688.47;;;17.43;100.00
16194;BME280;8204;53.582;10.080;2023-07-13T03:19:29;99690.28;;;17.42;100.00
16194;BME280;8204;53.582;10.080;2023-07-13T03:21:54;99698.47;;;17.41;100.00
16194;BME280;8204;53.582;10.080;2023-07-13T03:24:20;99702.72;;;17.42;100.00
16194;BME280;8204;53.582;10.080;2023-07-13T03:26:46;99716.41;;;17.39;100.00
16194;BME280;8204;53.582;10.080;2023-07-13T03:29:11;99740.03;;;17.40;100.00
16194;BME280;8204;53.582;10.080;2023-07-13T03:31:37;99748.44;;;17.37;100.00
16194;BME280;8204;53.582;10.080;2023-07-13T03:34:02;99741.28;;;17.38;100.00
16194;BME280;8204;53.582;10.080;2023-07-13T03:36:30;99729.88;;;17.37;100.00
16194;BME280;8204;53.582;10.080;2023-07-13T03:38:58;99741.50;;;17.36;100.00
16194;BME280;8204;53.582;10.080;2023-07-13T03:41:25;99747.84;;;17.35;100.00
16194;BME280;8204;53.582;10.080;2023-07-13T03:43:50;99754.19;;;17.34;100.00
16194;BME280;8204;53.582;10.080;2023-07-13T03:46:16;99754.97;;;17.35;100.00
16194;BME280;8204;53.582;10.080;2023-07-13T03:48:44;99766.59;;;17.34;100.00
16194;BME280;8204;53.582;10.080;2023-07-13T03:51:11;99755.22;;;17.33;100.00
16194;BME280;8204;53.582;10.080;2023-07-13T03:53:40;99747.47;;;17.32;100.00
16194;BME280;8204;53.582;10.080;2023-07-13T03:56:06;99756.25;;;17.32;100.00
16194;BME280;8204;53.582;10.080;2023-07-13T03:58:34;99764.19;;;17.32;100.00
16194;BME280;8204;53.582;10.080;2023-07-13T04:01:01;99768.47;;;17.33;100.00
16194;BME280;8204;53.582;10.080;2023-07-13T04:03:29;99772.13;;;17.32;100.00
16194;BME280;8204;53.582;10.080;2023-07-13T04:05:57;99768.47;;;17.33;100.00
16194;BME280;8204;53.582;10.080;2023-07-13T04:08:27;99774.78;;;17.32;100.00
16194;BME280;8204;53.582;10.080;2023-07-13T04:10:53;99758.91;;;17.32;100.00
16194;BME280;8204;53.582;10.080;2023-07-13T04:13:19;99778.22;;;17.33;100.00
16194;BME280;8204;53.582;10.080;2023-07-13T04:15:44;99777.19;;;17.34;100.00
16194;BME280;8204;53.582;10.080;2023-07-13T04:18:09;99801.41;;;17.37;100.00
16194;BME280;8204;53.582;10.080;2023-07-13T04:20:35;99826.25;;;17.36;100.00
16194;BME280;8204;53.582;10.080;2023-07-13T04:23:00;99812.22;;;17.36;100.00
16194;BME280;8204;53.582;10.080;2023-07-13T04:25:26;99791.81;;;17.36;100.00
16194;BME280;8204;53.582;10.080;2023-07-13T04:27:52;99807.72;;;17.36;100.00
16194;BME280;8204;53.582;10.080;2023-07-13T04:30:18;99819.94;;;17.37;100.00
16194;BME280;8204;53.582;10.080;2023-07-13T04:32:44;99817.06;;;17.39;100.00
16194;BME280;8204;53.582;10.080;2023-07-13T04:35:09;99808.31;;;17.38;100.00
16194;BME280;8204;53.582;10.080;2023-07-13T04:37:35;99806.25;;;17.40;100.00
16194;BME280;8204;53.582;10.080;2023-07-13T04:40:01;99811.56;;;17.40;100.00
16194;BME280;8204;53.582;10.080;2023-07-13T04:42:27;99815.78;;;17.41;100.00
16194;BME280;8204;53.582;10.080;2023-07-13T04:44:52;99811.09;;;17.43;100.00
16194;BME280;8204;53.582;10.080;2023-07-13T04:47:18;99805.56;;;17.45;100.00
16194;BME280;8204;53.582;10.080;2023-07-13T04:49:44;99806.38;;;17.45;100.00
16194;BME280;8204;53.582;10.080;2023-07-13T04:52:11;99800.63;;;17.48;100.00
16194;BME280;8204;53.582;10.080;2023-07-13T04:54:37;99809.75;;;17.52;100.00
16194;BME280;8204;53.582;10.080;2023-07-13T04:57:03;99819.88;;;17.55;100.00
16194;BME280;8204;53.582;10.080;2023-07-13T04:59:32;99831.06;;;17.57;100.00
16194;BME280;8204;53.582;10.080;2023-07-13T05:01:58;99842.81;;;17.61;100.00
16194;BME280;8204;53.582;10.080;2023-07-13T05:04:23;99860.13;;;17.63;100.00
16194;BME280;8204;53.582;10.080;2023-07-13T05:06:50;99889.06;;;17.65;100.00
16194;BME280;8204;53.582;10.080;2023-07-13T05:09:15;99913.47;;;17.67;100.00
16194;BME280;8204;53.582;10.080;2023-07-13T05:11:42;99902.66;;;17.68;100.00
16194;BME280;8204;53.582;10.080;2023-07-13T05:14:08;99899.34;;;17.73;100.00
16194;BME280;8204;53.582;10.080;2023-07-13T05:16:35;99896.81;;;17.78;100.00
16194;BME280;8204;53.582;10.080;2023-07-13T05:19:00;99922.84;;;17.81;100.00
16194;BME280;8204;53.582;10.080;2023-07-13T05:21:27;99942.59;;;17.85;100.00
16194;BME280;8204;53.582;10.080;2023-07-13T05:23:52;99950.69;;;17.90;100.00
16194;BME280;8204;53.582;10.080;2023-07-13T05:26:18;99972.84;;;17.95;100.00
16194;BME280;8204;53.582;10.080;2023-07-13T05:28:44;99982.31;;;18.03;100.00
16194;BME280;8204;53.582;10.080;2023-07-13T05:31:10;100015.66;;;18.10;100.00
16194;BME280;8204;53.582;10.080;2023-07-13T05:33:36;100031.25;;;18.18;100.00
16194;BME280;8204;53.582;10.080;2023-07-13T05:36:02;100047.25;;;18.30;100.00
16194;BME280;8204;53.582;10.080;2023-07-13T05:38:28;100057.56;;;18.37;100.00
16194;BME280;8204;53.582;10.080;2023-07-13T05:40:55;100040.28;;;18.46;100.00
16194;BME280;8204;53.582;10.080;2023-07-13T05:43:21;100070.19;;;18.53;100.00
16194;BME280;8204;53.582;10.080;2023-07-13T05:45:48;100060.28;;;18.60;100.00
16194;BME280;8204;53.582;10.080;2023-07-13T05:48:15;100073.25;;;18.68;100.00
16194;BME280;8204;53.582;10.080;2023-07-13T05:50:41;100093.56;;;18.74;100.00
16194;BME280;8204;53.582;10.080;2023-07-13T05:53:06;100130.84;;;18.79;100.00
16194;BME280;8204;53.582;10.080;2023-07-13T05:55:32;100146.34;;;18.82;100.00
16194;BME280;8204;53.582;10.080;2023-07-13T05:57:59;100172.06;;;18.82;100.00
16194;BME280;8204;53.582;10.080;2023-07-13T06:00:25;100157.56;;;18.84;100.00
16194;BME280;8204;53.582;10.080;2023-07-13T06:02:51;100135.84;;;18.87;100.00
16194;BME280;8204;53.582;10.080;2023-07-13T06:05:16;100144.19;;;18.91;100.00
16194;BME280;8204;53.582;10.080;2023-07-13T06:07:43;100133.13;;;18.94;100.00
16194;BME280;8204;53.582;10.080;2023-07-13T06:10:09;100140.63;;;18.97;100.00
16194;BME280;8204;53.582;10.080;2023-07-13T06:12:35;100133.81;;;19.01;100.00
16194;BME280;8204;53.582;10.080;2023-07-13T06:15:01;100132.56;;;19.03;100.00
16194;BME280;8204;53.582;10.080;2023-07-13T06:17:27;100166.84;;;19.04;100.00
16194;BME280;8204;53.582;10.080;2023-07-13T06:19:53;100192.38;;;19.05;100.00
16194;BME280;8204;53.582;10.080;2023-07-13T06:22:18;100206.69;;;19.04;100.00
16194;BME280;8204;53.582;10.080;2023-07-13T06:24:43;100211.78;;;19.06;100.00
16194;BME280;8204;53.582;10.080;2023-07-13T06:27:09;100190.91;;;19.09;100.00
16194;BME280;8204;53.582;10.080;2023-07-13T06:29:35;100186.19;;;19.11;100.00
16194;BME280;8204;53.582;10.080;2023-07-13T06:32:01;100226.41;;;19.15;100.00
16194;BME280;8204;53.582;10.080;2023-07-13T06:34:26;100236.56;;;19.18;100.00
16194;BME280;8204;53.582;10.080;2023-07-13T06:36:52;100222.59;;;19.22;100.00
16194;BME280;8204;53.582;10.080;2023-07-13T06:39:18;100245.47;;;19.23;100.00
16194;BME280;8204;53.582;10.080;2023-07-13T06:41:43;100274.03;;;19.28;100.00
16194;BME280;8204;53.582;10.080;2023-07-13T06:44:09;100265.59;;;19.31;100.00
16194;BME280;8204;53.582;10.080;2023-07-13T06:46:34;100278.44;;;19.34;100.00
16194;BME280;8204;53.582;10.080;2023-07-13T06:49:00;100273.47;;;19.37;100.00
16194;BME280;8204;53.582;10.080;2023-07-13T06:51:29;100257.91;;;19.41;100.00
16194;BME280;8204;53.582;10.080;2023-07-13T06:53:55;100280.06;;;19.46;100.00
16194;BME280;8204;53.582;10.080;2023-07-13T06:56:21;100251.19;;;19.50;100.00
16194;BME280;8204;53.582;10.080;2023-07-13T06:58:46;100265.44;;;19.55;100.00
16194;BME280;8204;53.582;10.080;2023-07-13T07:01:12;100319.19;;;19.57;100.00
16194;BME280;8204;53.582;10.080;2023-07-13T07:03:38;100337.34;;;19.60;100.00
16194;BME280;8204;53.582;10.080;2023-07-13T07:06:22;100338.16;;;19.61;100.00
16194;BME280;8204;53.582;10.080;2023-07-13T07:08:52;100336.06;;;19.63;100.00
16194;BME280;8204;53.582;10.080;2023-07-13T07:11:24;100276.34;;;19.65;100.00
16194;BME280;8204;53.582;10.080;2023-07-13T07:13:51;100289.75;;;19.70;100.00
16194;BME280;8204;53.582;10.080;2023-07-13T07:16:18;100288.25;;;19.74;100.00
16194;BME280;8204;53.582;10.080;2023-07-13T07:18:46;100303.97;;;19.76;100.00
16194;BME280;8204;53.582;10.080;2023-07-13T07:21:12;100347.78;;;19.73;100.00
16194;BME280;8204;53.582;10.080;2023-07-13T07:23:38;100330.00;;;19.74;100.00
16194;BME280;8204;53.582;10.080;2023-07-13T07:26:03;100277.97;;;19.77;100.00
16194;BME280;8204;53.582;10.080;2023-07-13T07:28:30;100274.88;;;19.80;100.00
16194;BME280;8204;53.582;10.080;2023-07-13T07:30:56;100274.63;;;19.82;100.00
16194;BME280;8204;53.582;10.080;2023-07-13T07:33:23;100327.38;;;19.85;100.00
16194;BME280;8204;53.582;10.080;2023-07-13T07:35:48;100353.72;;;19.86;100.00
16194;BME280;8204;53.582;10.080;2023-07-13T07:38:14;100352.69;;;19.87;100.00
16194;BME280;8204;53.582;10.080;2023-07-13T07:40:40;100347.16;;;19.89;100.00
16194;BME280;8204;53.582;10.080;2023-07-13T07:43:08;100323.13;;;19.95;100.00
16194;BME280;8204;53.582;10.080;2023-07-13T07:45:34;100345.34;;;20.01;100.00
16194;BME280;8204;53.582;10.080;2023-07-13T07:48:00;100359.59;;;20.06;100.00
16194;BME280;8204;53.582;10.080;2023-07-13T07:50:26;100338.41;;;20.11;100.00
16194;BME280;8204;53.582;10.080;2023-07-13T07:52:52;100367.25;;;20.14;100.00
16194;BME280;8204;53.582;10.080;2023-07-13T07:55:18;100408.75;;;20.15;100.00
16194;BME280;8204;53.582;10.080;2023-07-13T07:57:43;100370.03;;;20.19;100.00
16194;BME280;8204;53.582;10.080;2023-07-13T08:00:09;100357.63;;;20.25;100.00
16194;BME280;8204;53.582;10.080;2023-07-13T08:02:35;100335.81;;;20.34;100.00
16194;BME280;8204;53.582;10.080;2023-07-13T08:05:01;100341.78;;;20.41;100.00
16194;BME280;8204;53.582;10.080;2023-07-13T08:07:27;100380.81;;;20.47;100.00
16194;BME280;8204;53.582;10.080;2023-07-13T08:09:53;100380.94;;;20.52;100.00
16194;BME280;8204;53.582;10.080;2023-07-13T08:12:18;100375.47;;;20.58;100.00
16194;BME280;8204;53.582;10.080;2023-07-13T08:14:44;100351.06;;;20.61;100.00
16194;BME280;8204;53.582;10.080;2023-07-13T08:17:10;100404.44;;;20.66;100.00
16194;BME280;8204;53.582;10.080;2023-07-13T08:19:35;100440.91;;;20.66;100.00
16194;BME280;8204;53.582;10.080;2023-07-13T08:22:00;100435.94;;;20.69;100.00
16194;BME280;8204;53.582;10.080;2023-07-13T08:24:26;100426.81;;;20.77;100.00
16194;BME280;8204;53.582;10.080;2023-07-13T08:26:51;100418.25;;;20.86;100.00
16194;BME280;8204;53.582;10.080;2023-07-13T08:29:18;100473.59;;;20.84;100.00
16194;BME280;8204;53.582;10.080;2023-07-13T08:31:43;100453.47;;;20.88;100.00
16194;BME280;8204;53.582;10.080;2023-07-13T08:34:10;100420.81;;;20.93;100.00
16194;BME280;8204;53.582;10.080;2023-07-13T08:36:36;100433.41;;;20.97;100.00
16194;BME280;8204;53.582;10.080;2023-07-13T08:39:02;100438.28;;;21.00;100.00
16194;BME280;8204;53.582;10.080;2023-07-13T08:41:28;100486.34;;;21.05;100.00
16194;BME280;8204;53.582;10.080;2023-07-13T08:43:58;100503.81;;;21.13;100.00
16194;BME280;8204;53.582;10.080;2023-07-13T08:46:32;100518.69;;;21.20;100.00
16194;BME280;8204;53.582;10.080;2023-07-13T08:49:03;100580.88;;;21.26;100.00
16194;BME280;8204;53.582;10.080;2023-07-13T08:51:47;100561.88;;;21.33;100.00
16194;BME280;8204;53.582;10.080;2023-07-13T08:54:27;100555.16;;;21.42;100.00
16194;BME280;8204;53.582;10.080;2023-07-13T08:56:56;100558.06;;;21.52;100.00
16194;BME280;8204;53.582;10.080;2023-07-13T08:59:26;100594.47;;;21.58;100.00
16194;BME280;8204;53.582;10.080;2023-07-13T09:02:14;100604.09;;;21.59;100.00
16194;BME280;8204;53.582;10.080;2023-07-13T09:04:45;100587.75;;;21.67;100.00
16194;BME280;8204;53.582;10.080;2023-07-13T09:07:25;100621.97;;;21.70;100.00
16194;BME280;8204;53.582;10.080;2023-07-13T09:10:15;100626.84;;;21.73;100.00
16194;BME280;8204;53.582;10.080;2023-07-13T09:13:01;100658.84;;;21.73;100.00
16194;BME280;8204;53.582;10.080;2023-07-13T09:15:32;100652.72;;;21.73;100.00
16194;BME280;8204;53.582;10.080;2023-07-13T09:18:04;100669.16;;;21.70;100.00
16194;BME280;8204;53.582;10.080;2023-07-13T09:20:49;100695.97;;;21.63;100.00
16194;BME280;8204;53.582;10.080;2023-07-13T09:23:20;100706.63;;;21.63;100.00
16194;BME280;8204;53.582;10.080;2023-07-13T09:25:48;100732.38;;;21.69;100.00
16194;BME280;8204;53.582;10.080;2023-07-13T09:28:24;100755.22;;;21.77;100.00
16194;BME280;8204;53.582;10.080;2023-07-13T09:31:04;100794.34;;;21.83;100.00
16194;BME280;8204;53.582;10.080;2023-07-13T09:33:31;100821.72;;;21.90;100.00
16194;BME280;8204;53.582;10.080;2023-07-13T09:35:58;100834.97;;;21.96;100.00
16194;BME280;8204;53.582;10.080;2023-07-13T09:38:25;100828.38;;;21.99;100.00
16194;BME280;8204;53.582;10.080;2023-07-13T09:41:08;100838.22;;;21.98;100.00
16194;BME280;8204;53.582;10.080;2023-07-13T09:44:00;100875.13;;;22.01;100.00
16194;BME280;8204;53.582;10.080;2023-07-13T09:46:27;100885.34;;;22.04;100.00
16194;BME280;8204;53.582;10.080;2023-07-13T09:48:55;100866.31;;;22.12;100.00
16194;BME280;8204;53.582;10.080;2023-07-13T09:51:21;100899.41;;;22.22;100.00
16194;BME280;8204;53.582;10.080;2023-07-13T09:53:47;100927.66;;;22.30;100.00
16194;BME280;8204;53.582;10.080;2023-07-13T09:56:21;100930.47;;;22.35;100.00
16194;BME280;8204;53.582;10.080;2023-07-13T09:58:48;100925.84;;;22.42;100.00
16194;BME280;8204;53.582;10.080;2023-07-13T10:01:14;100923.66;;;22.50;100.00
16194;BME280;8204;53.582;10.080;2023-07-13T10:03:52;100949.78;;;22.60;100.00
16194;BME280;8204;53.582;10.080;2023-07-13T10:06:21;100970.00;;;22.67;100.00
16194;BME280;8204;53.582;10.080;2023-07-13T10:08:55;100982.44;;;22.73;100.00
16194;BME280;8204;53.582;10.080;2023-07-13T10:11:24;100985.44;;;22.77;100.00
16194;BME280;8204;53.582;10.080;2023-07-13T10:13:59;100982.69;;;22.83;100.00
16194;BME280;8204;53.582;10.080;2023-07-13T10:16:34;100994.75;;;22.85;100.00
16194;BME280;8204;53.582;10.080;2023-07-13T10:19:17;100983.72;;;22.93;100.00
16194;BME280;8204;53.582;10.080;2023-07-13T10:22:13;101022.31;;;22.97;100.00
16194;BME280;8204;53.582;10.080;2023-07-13T10:24:40;101029.28;;;22.98;100.00
16194;BME280;8204;53.582;10.080;2023-07-13T10:27:20;101014.03;;;22.99;100.00
16194;BME280;8204;53.582;10.080;2023-07-13T10:30:11;101006.63;;;23.01;100.00
16194;BME280;8204;53.582;10.080;2023-07-13T10:32:40;101019.56;;;23.04;100.00
16194;BME280;8204;53.582;10.080;2023-07-13T10:35:10;101003.75;;;23.02;100.00
16194;BME280;8204;53.582;10.080;2023-07-13T10:37:51;101008.63;;;23.05;100.00
16194;BME280;8204;53.582;10.080;2023-07-13T10:40:23;101023.16;;;23.09;100.00
16194;BME280;8204;53.582;10.080;2023-07-13T10:42:55;101027.81;;;23.14;100.00
16194;BME280;8204;53.582;10.080;2023-07-13T10:45:23;101028.16;;;23.17;100.00
16194;BME280;8204;53.582;10.080;2023-07-13T10:47:52;101024.44;;;23.18;100.00
16194;BME280;8204;53.582;10.080;2023-07-13T10:50:27;101027.22;;;23.23;100.00
16194;BME280;8204;53.582;10.080;2023-07-13T11:03:34;101056.97;;;23.15;100.00
16194;BME280;8204;53.582;10.080;2023-07-13T11:06:16;101068.63;;;23.21;100.00
16194;BME280;8204;53.582;10.080;2023-07-13T11:11:34;101058.63;;;23.39;100.00
16194;BME280;8204;53.582;10.080;2023-07-13T11:14:02;101074.53;;;23.46;100.00
16194;BME280;8204;53.582;10.080;2023-07-13T11:16:52;101059.41;;;23.51;100.00
16194;BME280;8204;53.582;10.080;2023-07-13T11:24:56;101064.28;;;23.77;100.00
16194;BME280;8204;53.582;10.080;2023-07-13T11:27:44;101068.00;;;23.87;100.00
16194;BME280;8204;53.582;10.080;2023-07-13T11:33:18;101077.59;;;24.00;100.00
16194;BME280;8204;53.582;10.080;2023-07-13T11:35:50;101069.22;;;24.08;100.00
16194;BME280;8204;53.582;10.080;2023-07-13T11:38:22;101072.66;;;24.20;100.00
16194;BME280;8204;53.582;10.080;2023-07-13T11:40:50;101085.22;;;24.30;100.00
16194;BME280;8204;53.582;10.080;2023-07-13T11:43:18;101093.00;;;24.43;100.00
16194;BME280;8204;53.582;10.080;2023-07-13T11:45:44;101073.94;;;24.56;100.00
16194;BME280;8204;53.582;10.080;2023-07-13T11:48:23;101074.50;;;24.75;100.00
16194;BME280;8204;53.582;10.080;2023-07-13T11:50:58;101095.44;;;24.89;100.00
16194;BME280;8204;53.582;10.080;2023-07-13T11:53:27;101096.88;;;24.97;100.00
16194;BME280;8204;53.582;10.080;2023-07-13T11:55:54;101100.38;;;24.97;100.00
16194;BME280;8204;53.582;10.080;2023-07-13T11:58:24;101114.19;;;24.89;100.00
16194;BME280;8204;53.582;10.080;2023-07-13T12:00:50;101104.75;;;24.70;100.00
16194;BME280;8204;53.582;10.080;2023-07-13T12:03:20;101095.31;;;24.68;100.00
16194;BME280;8204;53.582;10.080;2023-07-13T12:06:01;101109.69;;;24.78;100.00
16194;BME280;8204;53.582;10.080;2023-07-13T12:08:27;101101.75;;;24.83;100.00
16194;BME280;8204;53.582;10.080;2023-07-13T12:11:03;101102.81;;;24.82;100.00
16194;BME280;8204;53.582;10.080;2023-07-13T12:13:35;101102.22;;;24.80;100.00
16194;BME280;8204;53.582;10.080;2023-07-13T12:16:01;101109.84;;;24.72;100.00
16194;BME280;8204;53.582;10.080;2023-07-13T12:18:31;101106.91;;;24.57;100.00
16194;BME280;8204;53.582;10.080;2023-07-13T12:20:59;101113.84;;;24.41;100.00
16194;BME280;8204;53.582;10.080;2023-07-13T12:23:29;101119.91;;;24.26;100.00
16194;BME280;8204;53.582;10.080;2023-07-13T12:25:57;101170.03;;;24.14;100.00
16194;BME280;8204;53.582;10.080;2023-07-13T12:28:31;101140.75;;;23.61;100.00
16194;BME280;8204;53.582;10.080;2023-07-13T12:31:03;100759.09;;;22.26;100.00
16194;BME280;8204;53.582;10.080;2023-07-13T12:33:30;100443.84;;;20.99;100.00
16194;BME280;8204;53.582;10.080;2023-07-13T12:36:00;100280.25;;;20.26;100.00
16194;BME280;8204;53.582;10.080;2023-07-13T12:38:27;100123.78;;;19.55;100.00
16194;BME280;8204;53.582;10.080;2023-07-13T12:40:53;99880.59;;;19.18;100.00
16194;BME280;8204;53.582;10.080;2023-07-13T12:43:20;99694.69;;;18.90;100.00
16194;BME280;8204;53.582;10.080;2023-07-13T12:46:17;99541.72;;;18.73;100.00
16194;BME280;8204;53.582;10.080;2023-07-13T12:48:43;99423.25;;;18.67;100.00
16194;BME280;8204;53.582;10.080;2023-07-13T12:51:14;99308.97;;;18.73;100.00
16194;BME280;8204;53.582;10.080;2023-07-13T12:53:42;99187.03;;;18.83;100.00
16194;BME280;8204;53.582;10.080;2023-07-13T12:56:19;99077.81;;;19.01;100.00
16194;BME280;8204;53.582;10.080;2023-07-13T12:58:47;98985.53;;;19.13;100.00
16194;BME280;8204;53.582;10.080;2023-07-13T13:01:17;98929.50;;;19.14;100.00
16194;BME280;8204;53.582;10.080;2023-07-13T13:03:48;98918.41;;;19.17;100.00
16194;BME280;8204;53.582;10.080;2023-07-13T13:08:46;98916.78;;;19.11;100.00
16194;BME280;8204;53.582;10.080;2023-07-13T13:11:11;98936.59;;;19.04;100.00
16194;BME280;8204;53.582;10.080;2023-07-13T13:13:37;98945.28;;;18.95;100.00
16194;BME280;8204;53.582;10.080;2023-07-13T13:18:34;98973.84;;;18.78;100.00
16194;BME280;8204;53.582;10.080;2023-07-13T13:21:01;98967.94;;;18.71;100.00